createdAt,value
2023-02-07T00:00:38.459Z,96362.72
2023-02-07T00:03:06.552Z,96363.00
2023-02-07T00:05:33.196Z,96367.38
2023-02-07T00:07:59.717Z,96381.84
2023-02-07T00:10:26.261Z,96391.22
2023-02-07T00:12:52.791Z,96389.59
2023-02-07T00:15:19.564Z,96389.38
2023-02-07T00:17:46.093Z,96390.50
2023-02-07T00:20:13.975Z,96391.56
2023-02-07T00:22:40.500Z,96387.44
2023-02-07T00:25:07.057Z,96385.38
2023-02-07T00:27:33.645Z,96384.16
2023-02-07T00:30:00.231Z,96385.94
2023-02-07T00:32:30.315Z,96383.19
2023-02-07T00:34:56.861Z,96382.09
2023-02-07T00:37:24.754Z,96388.13
2023-02-07T00:39:51.481Z,96383.03
2023-02-07T00:42:18.071Z,96374.41
2023-02-07T00:44:44.655Z,96369.88
2023-02-07T00:47:11.179Z,96371.09
2023-02-07T00:49:37.687Z,96374.13
2023-02-07T00:52:04.548Z,96370.81
2023-02-07T00:54:32.555Z,96370.00
2023-02-07T00:56:59.071Z,96358.59
2023-02-07T00:59:25.760Z,96359.44
2023-02-07T01:01:52.287Z,96350.91
2023-02-07T01:04:18.921Z,96347.34
2023-02-07T01:06:45.465Z,96349.00
2023-02-07T01:09:12.975Z,96353.53
2023-02-07T01:11:40.896Z,96349.13
2023-02-07T01:14:07.494Z,96343.31
2023-02-07T01:16:36.058Z,96357.91
2023-02-07T01:19:05.513Z,96356.06
2023-02-07T01:21:32.135Z,96350.88
2023-02-07T01:23:59.100Z,96347.50
2023-02-07T01:26:26.814Z,96353.13
2023-02-07T01:28:55.192Z,96360.66
2023-02-07T01:31:23.420Z,96360.81
2023-02-07T01:33:54.301Z,96360.66
2023-02-07T01:36:21.108Z,96379.09
2023-02-07T01:38:47.668Z,96368.47
2023-02-07T01:41:14.680Z,96376.56
2023-02-07T01:43:57.644Z,96379.06
2023-02-07T01:46:25.233Z,96377.13
2023-02-07T01:48:53.003Z,96386.59
2023-02-07T01:51:19.689Z,96397.88
2023-02-07T01:53:47.149Z,96404.50
2023-02-07T01:56:30.451Z,96381.19
2023-02-07T01:58:59.838Z,96381.06
2023-02-07T02:01:26.695Z,96384.06
2023-02-07T02:03:55.639Z,96383.81
2023-02-07T02:06:24.781Z,96382.72
2023-02-07T02:08:54.536Z,96367.63
2023-02-07T02:11:45.567Z,96357.06
2023-02-07T02:14:25.372Z,96348.41
2023-02-07T02:17:02.569Z,96345.00
2023-02-07T02:20:12.225Z,96344.16
2023-02-07T02:22:55.638Z,96359.81
2023-02-07T02:25:55.103Z,96365.84
2023-02-07T02:28:47.525Z,96376.41
2023-02-07T02:31:50.814Z,96373.38
2023-02-07T02:34:24.025Z,96382.22
2023-02-07T02:36:57.261Z,96386.97
2023-02-07T02:39:32.540Z,96385.47
2023-02-07T02:42:06.814Z,96384.78
2023-02-07T02:44:38.286Z,96402.06
2023-02-07T02:47:05.219Z,96411.81
2023-02-07T02:49:34.821Z,96425.16
2023-02-07T02:52:01.399Z,96421.59
2023-02-07T02:54:30.302Z,96421.38
2023-02-07T02:57:36.519Z,96431.00
2023-02-07T03:00:20.680Z,96439.63
2023-02-07T03:02:54.760Z,96449.94
2023-02-07T03:05:41.605Z,96452.66
2023-02-07T03:08:18.265Z,96459.53
2023-02-07T03:10:53.701Z,96461.31
2023-02-07T03:13:26.923Z,96470.22
2023-02-07T03:16:04.296Z,96468.56
2023-02-07T03:18:43.093Z,96462.53
2023-02-07T03:21:19.977Z,96465.00
2023-02-07T03:23:49.091Z,96460.88
2023-02-07T03:26:16.288Z,96454.03
2023-02-07T03:28:43.919Z,96454.97
2023-02-07T03:31:13.249Z,96455.13
2023-02-07T03:33:41.630Z,96455.94
2023-02-07T03:36:15.630Z,96454.28
2023-02-07T03:38:42.226Z,96453.59
2023-02-07T03:41:16.459Z,96451.81
2023-02-07T03:43:43.792Z,96453.59
2023-02-07T03:46:11.415Z,96455.25
2023-02-07T03:48:38.432Z,96456.34
2023-02-07T03:51:05.444Z,96455.38
2023-02-07T03:53:33.386Z,96463.47
2023-02-07T03:56:00.059Z,96439.19
2023-02-07T03:58:26.647Z,96445.03
2023-02-07T04:00:53.245Z,96442.13
2023-02-07T04:03:19.822Z,96428.72
2023-02-07T04:05:46.487Z,96420.38
2023-02-07T04:08:13.041Z,96419.94
2023-02-07T04:10:40.951Z,96422.56
2023-02-07T04:13:07.534Z,96420.78
2023-02-07T04:15:34.171Z,96416.53
2023-02-07T04:18:00.752Z,96395.69
2023-02-07T04:20:27.329Z,96395.69
2023-02-07T04:22:53.862Z,96394.03
2023-02-07T04:25:20.409Z,96392.13
2023-02-07T04:27:48.308Z,96410.94
2023-02-07T04:30:14.862Z,96441.41
2023-02-07T04:32:41.476Z,96427.75
2023-02-07T04:35:08.777Z,96431.78
2023-02-07T04:37:35.345Z,96432.88
2023-02-07T04:40:01.934Z,96435.03
2023-02-07T04:42:28.467Z,96448.75
2023-02-07T04:44:56.348Z,96480.56
2023-02-07T04:47:22.899Z,96457.91
2023-02-07T04:49:49.448Z,96476.28
2023-02-07T04:52:16.004Z,96464.25
2023-02-07T04:54:42.551Z,96461.44
2023-02-07T04:57:09.129Z,96449.09
2023-02-07T04:59:35.700Z,96430.06
2023-02-07T05:02:03.610Z,96431.84
2023-02-07T05:04:30.257Z,96401.59
2023-02-07T05:06:56.799Z,96388.94
2023-02-07T05:09:23.382Z,96392.81
2023-02-07T05:11:49.924Z,96382.53
2023-02-07T05:14:16.492Z,96383.63
2023-02-07T05:16:43.104Z,96385.13
2023-02-07T05:19:11.001Z,96385.56
2023-02-07T05:21:37.530Z,96385.56
2023-02-07T05:24:04.323Z,96393.13
2023-02-07T05:26:30.925Z,96411.88
2023-02-07T05:28:57.488Z,96436.00
2023-02-07T05:31:44.115Z,96449.56
2023-02-07T05:34:12.475Z,96455.31
2023-02-07T05:36:39.076Z,96450.97
2023-02-07T05:39:05.713Z,96453.72
2023-02-07T05:41:32.236Z,96453.50
2023-02-07T05:43:58.740Z,96445.66
2023-02-07T05:46:25.468Z,96440.38
2023-02-07T05:48:52.019Z,96431.78
2023-02-07T05:51:19.880Z,96441.69
2023-02-07T05:53:46.398Z,96450.59
2023-02-07T05:56:12.920Z,96463.09
2023-02-07T05:58:39.495Z,96452.31
2023-02-07T06:01:06.023Z,96450.28
2023-02-07T06:03:32.588Z,96458.91
2023-02-07T06:05:59.221Z,96461.97
2023-02-07T06:08:27.084Z,96455.09
2023-02-07T06:10:53.642Z,96451.09
2023-02-07T06:13:20.321Z,96444.94
2023-02-07T06:15:47.560Z,96445.91
2023-02-07T06:18:14.457Z,96445.06
2023-02-07T06:20:40.988Z,96429.47
2023-02-07T06:23:07.517Z,96433.84
2023-02-07T06:25:35.396Z,96441.66
2023-02-07T06:28:01.947Z,96450.28
2023-02-07T06:30:28.651Z,96447.56
2023-02-07T06:32:55.206Z,96438.91
2023-02-07T06:35:21.735Z,96440.00
2023-02-07T06:37:48.333Z,96433.00
2023-02-07T06:40:14.893Z,96432.06
2023-02-07T06:42:44.568Z,96434.91
2023-02-07T06:45:10.947Z,96446.97
2023-02-07T06:47:37.647Z,96436.69
2023-02-07T06:50:04.735Z,96440.25
2023-02-07T06:52:31.309Z,96441.22
2023-02-07T06:54:57.884Z,96450.78
2023-02-07T06:57:24.564Z,96463.50
2023-02-07T06:59:52.542Z,96473.22
2023-02-07T07:02:19.194Z,96479.31
2023-02-07T07:04:45.822Z,96482.53
2023-02-07T07:07:12.436Z,96487.59
2023-02-07T07:09:38.991Z,96483.22
2023-02-07T07:12:06.111Z,96488.03
2023-02-07T07:14:32.658Z,96487.03
2023-02-07T07:17:00.580Z,96483.81
2023-02-07T07:19:27.172Z,96489.72
2023-02-07T07:21:55.180Z,96487.97
2023-02-07T07:24:22.054Z,96492.31
2023-02-07T07:26:50.136Z,96487.97
2023-02-07T07:29:17.866Z,96482.03
2023-02-07T07:31:44.845Z,96482.88
2023-02-07T07:34:13.552Z,96474.34
2023-02-07T07:36:40.085Z,96470.94
2023-02-07T07:39:08.859Z,96463.97
2023-02-07T07:41:35.449Z,96465.72
2023-02-07T07:44:02.069Z,96466.31
2023-02-07T07:46:29.163Z,96461.84
2023-02-07T07:48:55.798Z,96450.81
2023-02-07T07:51:23.732Z,96459.56
2023-02-07T07:53:50.307Z,96450.59
2023-02-07T07:56:16.838Z,96454.84
2023-02-07T07:58:43.468Z,96447.63
2023-02-07T08:01:10.025Z,96439.59
2023-02-07T08:03:36.633Z,96443.75
2023-02-07T08:06:03.331Z,96442.72
2023-02-07T08:08:32.565Z,96430.22
2023-02-07T08:11:01.790Z,96426.84
2023-02-07T08:13:29.753Z,96419.69
2023-02-07T08:15:59.145Z,96411.13
2023-02-07T08:18:25.735Z,96413.69
2023-02-07T08:20:52.499Z,96412.16
2023-02-07T08:23:19.095Z,96412.72
2023-02-07T08:25:46.964Z,96414.00
2023-02-07T08:28:13.800Z,96422.22
2023-02-07T08:30:40.702Z,96419.75
2023-02-07T08:33:07.423Z,96430.44
2023-02-07T08:35:34.133Z,96420.88
2023-02-07T08:38:00.712Z,96421.78
2023-02-07T08:40:27.502Z,96405.09
2023-02-07T08:42:55.669Z,96400.19
2023-02-07T08:45:22.301Z,96389.69
2023-02-07T08:47:48.916Z,96395.75
2023-02-07T08:50:17.052Z,96393.44
2023-02-07T08:52:43.785Z,96396.50
2023-02-07T08:55:11.519Z,96395.38
2023-02-07T08:57:39.304Z,96394.00
2023-02-07T09:00:09.234Z,96392.13
2023-02-07T09:02:36.022Z,96401.28
2023-02-07T09:05:02.773Z,96405.84
2023-02-07T09:07:29.368Z,96414.66
2023-02-07T09:09:55.926Z,96417.72
2023-02-07T09:12:22.633Z,96422.53
2023-02-07T09:14:49.159Z,96426.84
2023-02-07T09:17:17.052Z,96423.88
2023-02-07T09:19:43.605Z,96415.97
2023-02-07T09:22:10.164Z,96414.84
2023-02-07T09:24:36.940Z,96412.75
2023-02-07T09:27:03.597Z,96405.69
2023-02-07T09:29:30.164Z,96422.72
2023-02-07T09:31:56.818Z,96412.34
2023-02-07T09:34:24.827Z,96412.78
2023-02-07T09:36:51.629Z,96419.44
2023-02-07T09:39:18.557Z,96425.19
2023-02-07T09:41:54.777Z,96413.00
2023-02-07T09:44:27.082Z,96434.84
2023-02-07T09:46:59.869Z,96436.81
2023-02-07T09:49:36.970Z,96434.09
2023-02-07T09:52:05.602Z,96444.66
2023-02-07T09:54:37.929Z,96456.94
2023-02-07T09:57:08.991Z,96448.34
2023-02-07T09:59:50.304Z,96456.81
2023-02-07T10:02:26.257Z,96475.22
2023-02-07T10:05:00.323Z,96461.31
2023-02-07T10:07:27.204Z,96458.53
2023-02-07T10:09:54.078Z,96457.09
2023-02-07T10:12:53.424Z,96441.50
2023-02-07T10:15:32.348Z,96440.06
2023-02-07T10:18:15.733Z,96443.06
2023-02-07T10:20:49.570Z,96449.03
2023-02-07T10:23:32.339Z,96446.03
2023-02-07T10:26:11.015Z,96462.47
2023-02-07T10:29:12.702Z,96466.41
2023-02-07T10:31:43.252Z,96455.81
2023-02-07T10:34:13.997Z,96452.53
2023-02-07T10:36:45.152Z,96465.44
2023-02-07T10:39:17.928Z,96459.13
2023-02-07T10:41:45.305Z,96472.09
2023-02-07T10:44:14.089Z,96478.31
2023-02-07T10:46:42.886Z,96475.69
2023-02-07T10:49:24.655Z,96481.38
2023-02-07T10:51:56.545Z,96471.22
2023-02-07T10:54:24.622Z,96476.03
2023-02-07T10:56:55.982Z,96473.84
2023-02-07T10:59:36.511Z,96477.06
2023-02-07T11:02:09.996Z,96474.03
2023-02-07T11:04:40.092Z,96472.88
2023-02-07T11:07:14.965Z,96469.41
2023-02-07T11:09:42.080Z,96470.31
2023-02-07T11:12:14.834Z,96460.78
2023-02-07T11:14:45.634Z,96458.38
2023-02-07T11:17:21.693Z,96460.59
2023-02-07T11:19:48.305Z,96442.84
2023-02-07T11:22:18.987Z,96449.69
2023-02-07T11:24:46.883Z,96446.66
2023-02-07T11:27:15.880Z,96446.16
2023-02-07T11:29:48.897Z,96452.69
2023-02-07T11:32:16.790Z,96450.06
2023-02-07T11:34:47.847Z,96454.19
2023-02-07T11:37:26.179Z,96467.25
2023-02-07T11:39:54.760Z,96469.19
2023-02-07T11:42:23.463Z,96466.00
2023-02-07T11:44:51.020Z,96468.03
2023-02-07T11:47:20.986Z,96472.88
2023-02-07T11:49:50.683Z,96463.94
2023-02-07T11:52:17.417Z,96457.22
2023-02-07T11:54:51.495Z,96459.53
2023-02-07T11:57:20.801Z,96449.13
2023-02-07T11:59:54.473Z,96445.94
2023-02-07T12:02:24.622Z,96438.63
2023-02-07T12:04:52.889Z,96434.38
2023-02-07T12:07:25.760Z,96433.56
2023-02-07T12:09:56.283Z,96426.56
2023-02-07T12:12:32.931Z,96417.91
2023-02-07T12:15:03.676Z,96422.31
2023-02-07T12:17:37.711Z,96414.06
2023-02-07T12:20:09.832Z,96415.56
2023-02-07T12:22:47.124Z,96417.75
2023-02-07T12:25:21.687Z,96413.13
2023-02-07T12:27:51.739Z,96412.66
2023-02-07T12:30:26.115Z,96409.44
2023-02-07T12:32:58.399Z,96414.38
2023-02-07T12:35:29.962Z,96418.00
2023-02-07T12:38:05.834Z,96412.53
2023-02-07T12:40:41.556Z,96402.66
2023-02-07T12:43:14.479Z,96407.53
2023-02-07T12:45:56.920Z,96412.81
2023-02-07T12:48:35.316Z,96402.81
2023-02-07T12:51:17.445Z,96398.75
2023-02-07T12:54:02.879Z,96398.94
2023-02-07T12:56:42.634Z,96396.84
2023-02-07T12:59:13.406Z,96399.22
2023-02-07T13:01:45.483Z,96403.63
2023-02-07T13:04:43.588Z,96399.88
2023-02-07T13:07:25.271Z,96399.63
2023-02-07T13:10:00.343Z,96397.47
2023-02-07T13:12:33.873Z,96393.34
2023-02-07T13:15:09.922Z,96393.88
2023-02-07T13:17:49.425Z,96388.09
2023-02-07T13:20:27.530Z,96382.00
2023-02-07T13:22:57.404Z,96386.19
2023-02-07T13:25:27.793Z,96375.13
2023-02-07T13:27:59.198Z,96381.88
2023-02-07T13:30:29.722Z,96374.16
2023-02-07T13:33:00.854Z,96377.31
2023-02-07T13:35:33.377Z,96377.66
2023-02-07T13:38:07.173Z,96372.31
2023-02-07T13:40:44.646Z,96372.31
2023-02-07T13:43:18.939Z,96373.50
2023-02-07T13:45:56.750Z,96369.91
2023-02-07T13:48:32.636Z,96366.72
2023-02-07T13:51:10.125Z,96371.88
2023-02-07T13:53:47.979Z,96369.81
2023-02-07T13:56:33.781Z,96378.78
2023-02-07T13:59:20.867Z,96387.72
2023-02-07T14:01:51.154Z,96386.19
2023-02-07T14:04:19.407Z,96384.53
2023-02-07T14:06:57.309Z,96389.34
2023-02-07T14:09:32.504Z,96390.19
2023-02-07T14:12:02.667Z,96391.97
2023-02-07T14:14:32.277Z,96389.22
2023-02-07T14:17:02.247Z,96394.56
2023-02-07T14:19:52.105Z,96387.84
2023-02-07T14:22:21.940Z,96392.78
2023-02-07T14:24:51.538Z,96392.22
2023-02-07T14:27:32.385Z,96396.75
2023-02-07T14:30:21.396Z,96396.47
2023-02-07T14:33:11.997Z,96400.75
2023-02-07T14:35:45.902Z,96399.91
2023-02-07T14:38:29.315Z,96406.66
2023-02-07T14:41:10.713Z,96411.22
2023-02-07T14:43:50.549Z,96414.50
2023-02-07T14:46:31.753Z,96412.41
2023-02-07T14:49:01.337Z,96417.78
2023-02-07T14:51:37.736Z,96421.91
2023-02-07T14:54:08.402Z,96416.56
2023-02-07T14:56:46.586Z,96427.00
2023-02-07T14:59:18.490Z,96429.75
2023-02-07T15:01:46.480Z,96433.88
2023-02-07T15:04:13.039Z,96440.88
2023-02-07T15:06:42.071Z,96445.53
2023-02-07T15:09:19.551Z,96449.22
2023-02-07T15:11:51.460Z,96448.41
2023-02-07T15:14:27.281Z,96453.75
2023-02-07T15:16:56.129Z,96448.13
2023-02-07T15:19:27.868Z,96458.97
2023-02-07T15:21:54.456Z,96460.31
2023-02-07T15:24:27.697Z,96450.78
2023-02-07T15:26:58.346Z,96455.25
2023-02-07T15:29:28.407Z,96459.78
2023-02-07T15:31:57.496Z,96461.16
2023-02-07T15:34:31.546Z,96466.81
2023-02-07T15:37:00.034Z,96469.09
2023-02-07T15:39:29.488Z,96471.63
2023-02-07T15:41:57.476Z,96474.38
2023-02-07T15:44:26.040Z,96483.56
2023-02-07T15:46:55.103Z,96475.59
2023-02-07T15:49:29.219Z,96474.78
2023-02-07T15:52:00.751Z,96476.47
2023-02-07T15:54:27.901Z,96476.31
2023-02-07T15:56:58.643Z,96481.53
2023-02-07T15:59:28.862Z,96480.59
2023-02-07T16:01:58.717Z,96478.09
2023-02-07T16:04:29.661Z,96484.97
2023-02-07T16:07:00.794Z,96498.44
2023-02-07T16:09:41.698Z,96489.25
2023-02-07T16:12:31.992Z,96495.28
2023-02-07T16:14:59.746Z,96499.53
2023-02-07T16:17:38.292Z,96497.63
2023-02-07T16:20:07.210Z,96507.22
2023-02-07T16:22:33.904Z,96508.75
2023-02-07T16:25:02.596Z,96502.44
2023-02-07T16:27:31.838Z,96505.31
2023-02-07T16:29:59.907Z,96511.59
2023-02-07T16:32:30.870Z,96510.41
2023-02-07T16:35:00.015Z,96508.59
2023-02-07T16:37:28.741Z,96513.81
2023-02-07T16:39:55.388Z,96512.88
2023-02-07T16:42:22.034Z,96512.16
2023-02-07T16:44:48.847Z,96514.75
2023-02-07T16:47:17.434Z,96515.63
2023-02-07T16:49:45.088Z,96508.84
2023-02-07T16:52:11.662Z,96505.41
2023-02-07T16:54:39.651Z,96515.13
2023-02-07T16:57:06.444Z,96514.22
2023-02-07T16:59:33.030Z,96518.03
2023-02-07T17:01:59.730Z,96516.25
2023-02-07T17:04:26.391Z,96513.50
2023-02-07T17:06:53.019Z,96513.50
2023-02-07T17:09:22.886Z,96517.91
2023-02-07T17:11:51.397Z,96530.00
2023-02-07T17:14:18.035Z,96529.31
2023-02-07T17:16:44.638Z,96528.34
2023-02-07T17:19:13.296Z,96527.41
2023-02-07T17:21:41.813Z,96530.97
2023-02-07T17:24:09.032Z,96525.19
2023-02-07T17:26:36.334Z,96524.09
2023-02-07T17:29:05.009Z,96529.44
2023-02-07T17:31:32.238Z,96525.59
2023-02-07T17:33:59.434Z,96519.00
2023-02-07T17:36:26.076Z,96509.66
2023-02-07T17:38:52.610Z,96516.25
2023-02-07T17:41:20.823Z,96518.19
2023-02-07T17:43:47.511Z,96515.44
2023-02-07T17:46:17.505Z,96515.44
2023-02-07T17:48:47.351Z,96517.22
2023-02-07T17:51:13.992Z,96513.94
2023-02-07T17:53:40.553Z,96521.47
2023-02-07T17:56:07.400Z,96521.75
2023-02-07T17:58:37.900Z,96521.88
2023-02-07T18:01:05.667Z,96523.34
2023-02-07T18:03:33.698Z,96526.81
2023-02-07T18:06:00.252Z,96523.41
2023-02-07T18:08:26.822Z,96521.19
2023-02-07T18:10:53.395Z,96524.22
2023-02-07T18:13:21.226Z,96523.41
2023-02-07T18:15:47.996Z,96520.38
2023-02-07T18:18:16.388Z,96523.00
2023-02-07T18:20:44.417Z,96521.34
2023-02-07T18:23:13.339Z,96524.63
2023-02-07T18:25:39.918Z,96523.00
2023-02-07T18:28:06.506Z,96532.31
2023-02-07T18:30:33.532Z,96530.69
2023-02-07T18:33:00.129Z,96525.47
2023-02-07T18:35:26.918Z,96524.38
2023-02-07T18:37:54.798Z,96520.50
2023-02-07T18:40:21.671Z,96522.72
2023-02-07T18:42:48.252Z,96522.44
2023-02-07T18:45:14.984Z,96520.66
2023-02-07T18:47:42.014Z,96523.28
2023-02-07T18:50:09.536Z,96520.38
2023-02-07T18:52:36.166Z,96525.75
2023-02-07T18:55:05.739Z,96528.34
2023-02-07T18:57:32.259Z,96524.78
2023-02-07T18:59:58.869Z,96532.47
2023-02-07T19:02:25.707Z,96526.44
2023-02-07T19:04:52.319Z,96536.03
2023-02-07T19:07:18.835Z,96535.91
2023-02-07T19:09:45.378Z,96528.91
2023-02-07T19:12:13.921Z,96535.09
2023-02-07T19:14:40.541Z,96530.56
2023-02-07T19:17:07.292Z,96530.69
2023-02-07T19:19:34.035Z,96534.81
2023-02-07T19:22:00.930Z,96538.09
2023-02-07T19:24:28.140Z,96539.34
2023-02-07T19:26:57.055Z,96540.16
2023-02-07T19:29:29.943Z,96542.09
2023-02-07T19:31:57.678Z,96534.13
2023-02-07T19:34:24.591Z,96535.09
2023-02-07T19:36:51.559Z,96533.16
2023-02-07T19:39:18.467Z,96534.13
2023-02-07T19:41:45.211Z,96536.72
2023-02-07T19:44:11.944Z,96534.13
2023-02-07T19:46:40.072Z,96534.25
2023-02-07T19:49:06.748Z,96530.00
2023-02-07T19:51:33.351Z,96537.56
2023-02-07T19:54:00.690Z,96529.88
2023-02-07T19:56:32.105Z,96531.66
2023-02-07T19:59:02.495Z,96534.41
2023-02-07T20:01:29.877Z,96533.72
2023-02-07T20:03:58.275Z,96536.19
2023-02-07T20:06:29.130Z,96537.00
2023-02-07T20:08:55.756Z,96543.00
2023-02-07T20:11:22.700Z,96544.81
2023-02-07T20:13:51.382Z,96538.94
2023-02-07T20:16:21.470Z,96539.88
2023-02-07T20:18:48.771Z,96536.19
2023-02-07T20:21:22.137Z,96536.59
2023-02-07T20:23:49.812Z,96538.09
2023-02-07T20:26:18.963Z,96548.13
2023-02-07T20:28:46.362Z,96548.25
2023-02-07T20:31:15.405Z,96547.84
2023-02-07T20:33:43.310Z,96551.41
2023-02-07T20:36:11.867Z,96554.03
2023-02-07T20:38:40.452Z,96551.56
2023-02-07T20:41:08.782Z,96565.28
2023-02-07T20:43:35.632Z,96562.81
2023-02-07T20:46:07.803Z,96557.59
2023-02-07T20:48:34.556Z,96567.22
2023-02-07T20:51:03.313Z,96559.53
2023-02-07T20:53:29.884Z,96552.53
2023-02-07T20:56:09.323Z,96551.69
2023-02-07T20:58:36.000Z,96551.69
2023-02-07T21:01:10.548Z,96548.25
2023-02-07T21:03:37.598Z,96556.91
2023-02-07T21:06:04.626Z,96547.56
2023-02-07T21:08:32.047Z,96545.22
2023-02-07T21:10:59.008Z,96547.56
2023-02-07T21:13:27.414Z,96540.84
2023-02-07T21:16:02.690Z,96542.47
2023-02-07T21:18:29.862Z,96544.28
2023-02-07T21:20:57.061Z,96540.84
2023-02-07T21:23:23.892Z,96547.84
2023-02-07T21:25:50.633Z,96547.41
2023-02-07T21:28:17.228Z,96546.31
2023-02-07T21:30:45.211Z,96546.47
2023-02-07T21:33:11.869Z,96544.81
2023-02-07T21:35:38.546Z,96539.59
2023-02-07T21:38:06.242Z,96538.06
2023-02-07T21:40:32.900Z,96531.75
2023-02-07T21:42:59.442Z,96528.47
2023-02-07T21:45:25.988Z,96538.34
2023-02-07T21:47:53.860Z,96540.13
2023-02-07T21:50:20.906Z,96542.72
2023-02-07T21:52:47.463Z,96544.66
2023-02-07T21:55:14.072Z,96543.81
2023-02-07T21:57:40.647Z,96552.63
2023-02-07T22:00:08.270Z,96548.47
2023-02-07T22:02:35.586Z,96556.44
2023-02-07T22:05:03.649Z,96557.41
2023-02-07T22:07:30.261Z,96549.56
2023-02-07T22:09:56.821Z,96545.44
2023-02-07T22:12:23.380Z,96549.03
2023-02-07T22:14:49.930Z,96554.94
2023-02-07T22:17:16.584Z,96549.97
2023-02-07T22:19:43.288Z,96541.31
2023-02-07T22:22:11.172Z,96553.53
2023-02-07T22:24:37.709Z,96543.94
2023-02-07T22:27:04.334Z,96544.06
2023-02-07T22:29:30.868Z,96544.34
2023-02-07T22:31:57.437Z,96547.06
2023-02-07T22:34:24.095Z,96537.72
2023-02-07T22:36:50.630Z,96537.88
2023-02-07T22:39:18.862Z,96531.81
2023-02-07T22:41:45.831Z,96534.56
2023-02-07T22:44:12.692Z,96527.69
2023-02-07T22:46:39.559Z,96525.22
2023-02-07T22:49:06.147Z,96519.19
2023-02-07T22:51:34.806Z,96522.75
2023-02-07T22:54:05.474Z,96525.34
2023-02-07T22:56:34.411Z,96523.72
2023-02-07T22:59:01.315Z,96520.41
2023-02-07T23:01:29.901Z,96524.78
2023-02-07T23:03:57.455Z,96524.41
2023-02-07T23:06:25.564Z,96522.06
2023-02-07T23:08:53.177Z,96513.63
2023-02-07T23:11:21.604Z,96517.34
2023-02-07T23:13:50.201Z,96515.94
2023-02-07T23:16:19.046Z,96520.34
2023-02-07T23:18:45.680Z,96521.16
2023-02-07T23:21:14.561Z,96522.25
2023-02-07T23:23:41.164Z,96521.69
2023-02-07T23:26:08.955Z,96515.53
2023-02-07T23:28:37.225Z,96515.66
2023-02-07T23:31:06.394Z,96507.16
2023-02-07T23:33:33.378Z,96509.75
2023-02-07T23:36:00.193Z,96510.00
2023-02-07T23:38:26.842Z,96497.81
2023-02-07T23:40:53.793Z,96503.84
2023-02-07T23:43:20.345Z,96501.63
2023-02-07T23:45:46.868Z,96502.44
2023-02-07T23:48:14.756Z,96500.69
2023-02-07T23:50:41.523Z,96504.94
2023-02-07T23:53:08.429Z,96496.53
2023-02-07T23:55:35.452Z,96495.03
2023-02-07T23:58:02.245Z,96497.78
